sensor_id;sensor_type;location;lat;lon;timestamp;P1;durP1;ratioP1;P2;durP2;ratioP2
30677;SDS011;17437;47.188;8.896;2023-06-22T00:01:41;7.45;;;4.37;;
30677;SDS011;17437;47.188;8.896;2023-06-22T00:04:12;10.20;;;4.30;;
30677;SDS011;17437;47.188;8.896;2023-06-22T00:06:44;10.10;;;4.50;;
30677;SDS011;17437;47.188;8.896;2023-06-22T00:09:15;9.83;;;5.28;;
30677;SDS011;17437;47.188;8.896;2023-06-22T00:11:47;9.63;;;5.03;;
30677;SDS011;17437;47.188;8.896;2023-06-22T00:14:19;12.25;;;5.15;;
30677;SDS011;17437;47.188;8.896;2023-06-22T00:16:50;12.85;;;5.37;;
30677;SDS011;17437;47.188;8.896;2023-06-22T00:19:24;7.75;;;4.30;;
30677;SDS011;17437;47.188;8.896;2023-06-22T00:21:56;9.25;;;4.53;;
30677;SDS011;17437;47.188;8.896;2023-06-22T00:24:29;15.00;;;7.03;;
30677;SDS011;17437;47.188;8.896;2023-06-22T00:27:01;8.70;;;4.90;;
30677;SDS011;17437;47.188;8.896;2023-06-22T00:29:34;17.00;;;7.45;;
30677;SDS011;17437;47.188;8.896;2023-06-22T00:32:06;18.90;;;5.40;;
30677;SDS011;17437;47.188;8.896;2023-06-22T00:34:38;14.33;;;6.62;;
30677;SDS011;17437;47.188;8.896;2023-06-22T00:37:09;12.13;;;6.47;;
30677;SDS011;17437;47.188;8.896;2023-06-22T00:39:41;9.08;;;5.60;;
30677;SDS011;17437;47.188;8.896;2023-06-22T00:42:13;14.70;;;5.12;;
30677;SDS011;17437;47.188;8.896;2023-06-22T00:44:44;13.48;;;5.42;;
30677;SDS011;17437;47.188;8.896;2023-06-22T00:47:16;14.58;;;6.47;;
30677;SDS011;17437;47.188;8.896;2023-06-22T00:49:48;11.70;;;5.35;;
30677;SDS011;17437;47.188;8.896;2023-06-22T00:52:21;8.95;;;4.87;;
30677;SDS011;17437;47.188;8.896;2023-06-22T00:54:55;7.55;;;4.45;;
30677;SDS011;17437;47.188;8.896;2023-06-22T00:57:29;13.70;;;5.33;;
30677;SDS011;17437;47.188;8.896;2023-06-22T01:00:02;8.73;;;3.95;;
30677;SDS011;17437;47.188;8.896;2023-06-22T01:02:37;12.07;;;4.72;;
30677;SDS011;17437;47.188;8.896;2023-06-22T01:05:09;13.45;;;4.92;;
30677;SDS011;17437;47.188;8.896;2023-06-22T01:07:43;8.90;;;4.58;;
30677;SDS011;17437;47.188;8.896;2023-06-22T01:10:18;10.72;;;4.85;;
30677;SDS011;17437;47.188;8.896;2023-06-22T01:12:53;12.18;;;5.70;;
30677;SDS011;17437;47.188;8.896;2023-06-22T01:18:10;9.60;;;5.33;;
30677;SDS011;17437;47.188;8.896;2023-06-22T01:20:43;9.23;;;5.67;;
30677;SDS011;17437;47.188;8.896;2023-06-22T01:23:27;8.03;;;5.00;;
30677;SDS011;17437;47.188;8.896;2023-06-22T01:25:57;8.83;;;4.55;;
30677;SDS011;17437;47.188;8.896;2023-06-22T01:28:43;9.38;;;5.37;;
30677;SDS011;17437;47.188;8.896;2023-06-22T01:31:16;8.58;;;4.55;;
30677;SDS011;17437;47.188;8.896;2023-06-22T01:33:51;8.55;;;5.00;;
30677;SDS011;17437;47.188;8.896;2023-06-22T01:36:24;10.45;;;4.42;;
30677;SDS011;17437;47.188;8.896;2023-06-22T01:38:57;8.18;;;4.47;;
30677;SDS011;17437;47.188;8.896;2023-06-22T01:41:34;15.90;;;5.30;;
30677;SDS011;17437;47.188;8.896;2023-06-22T01:44:05;11.90;;;5.30;;
30677;SDS011;17437;47.188;8.896;2023-06-22T01:46:38;10.10;;;4.87;;
30677;SDS011;17437;47.188;8.896;2023-06-22T01:49:11;12.37;;;4.60;;
30677;SDS011;17437;47.188;8.896;2023-06-22T01:51:44;10.82;;;5.00;;
30677;SDS011;17437;47.188;8.896;2023-06-22T01:54:15;6.75;;;4.20;;
30677;SDS011;17437;47.188;8.896;2023-06-22T01:56:47;10.85;;;5.58;;
30677;SDS011;17437;47.188;8.896;2023-06-22T01:59:21;14.58;;;6.05;;
30677;SDS011;17437;47.188;8.896;2023-06-22T02:01:54;12.13;;;5.05;;
30677;SDS011;17437;47.188;8.896;2023-06-22T02:04:31;9.10;;;3.83;;
30677;SDS011;17437;47.188;8.896;2023-06-22T02:07:07;7.75;;;5.87;;
30677;SDS011;17437;47.188;8.896;2023-06-22T02:09:40;8.23;;;4.45;;
30677;SDS011;17437;47.188;8.896;2023-06-22T02:12:17;9.55;;;4.60;;
30677;SDS011;17437;47.188;8.896;2023-06-22T02:14:50;10.55;;;6.80;;
30677;SDS011;17437;47.188;8.896;2023-06-22T02:17:22;10.00;;;4.75;;
30677;SDS011;17437;47.188;8.896;2023-06-22T02:19:55;12.00;;;6.60;;
30677;SDS011;17437;47.188;8.896;2023-06-22T02:22:27;12.58;;;7.12;;
30677;SDS011;17437;47.188;8.896;2023-06-22T02:24:58;11.48;;;6.97;;
30677;SDS011;17437;47.188;8.896;2023-06-22T02:27:30;12.50;;;6.67;;
30677;SDS011;17437;47.188;8.896;2023-06-22T02:30:01;8.68;;;6.20;;
30677;SDS011;17437;47.188;8.896;2023-06-22T02:32:34;14.38;;;6.12;;
30677;SDS011;17437;47.188;8.896;2023-06-22T02:35:06;10.95;;;5.80;;
30677;SDS011;17437;47.188;8.896;2023-06-22T02:37:38;10.63;;;5.50;;
30677;SDS011;17437;47.188;8.896;2023-06-22T02:40:11;12.15;;;5.37;;
30677;SDS011;17437;47.188;8.896;2023-06-22T02:42:43;9.55;;;4.60;;
30677;SDS011;17437;47.188;8.896;2023-06-22T02:45:15;8.43;;;4.08;;
30677;SDS011;17437;47.188;8.896;2023-06-22T02:47:47;8.25;;;5.05;;
30677;SDS011;17437;47.188;8.896;2023-06-22T02:50:19;7.25;;;4.22;;
30677;SDS011;17437;47.188;8.896;2023-06-22T02:52:50;14.83;;;5.53;;
30677;SDS011;17437;47.188;8.896;2023-06-22T02:55:22;12.75;;;5.10;;
30677;SDS011;17437;47.188;8.896;2023-06-22T02:57:54;13.95;;;6.00;;
30677;SDS011;17437;47.188;8.896;2023-06-22T03:00:27;9.95;;;5.90;;
30677;SDS011;17437;47.188;8.896;2023-06-22T03:03:00;14.05;;;6.95;;
30677;SDS011;17437;47.188;8.896;2023-06-22T03:05:32;9.68;;;6.20;;
30677;SDS011;17437;47.188;8.896;2023-06-22T03:08:04;16.25;;;6.87;;
30677;SDS011;17437;47.188;8.896;2023-06-22T03:10:35;9.90;;;5.80;;
30677;SDS011;17437;47.188;8.896;2023-06-22T03:13:07;11.95;;;6.60;;
30677;SDS011;17437;47.188;8.896;2023-06-22T03:15:38;10.93;;;6.62;;
30677;SDS011;17437;47.188;8.896;2023-06-22T03:18:10;10.40;;;6.25;;
30677;SDS011;17437;47.188;8.896;2023-06-22T03:20:41;14.45;;;6.20;;
30677;SDS011;17437;47.188;8.896;2023-06-22T03:23:13;22.00;;;8.70;;
30677;SDS011;17437;47.188;8.896;2023-06-22T03:25:45;15.63;;;6.25;;
30677;SDS011;17437;47.188;8.896;2023-06-22T03:28:17;13.18;;;6.55;;
30677;SDS011;17437;47.188;8.896;2023-06-22T03:30:48;13.58;;;5.72;;
30677;SDS011;17437;47.188;8.896;2023-06-22T03:33:20;13.08;;;8.30;;
30677;SDS011;17437;47.188;8.896;2023-06-22T03:35:52;13.72;;;5.17;;
30677;SDS011;17437;47.188;8.896;2023-06-22T03:38:24;13.18;;;5.47;;
30677;SDS011;17437;47.188;8.896;2023-06-22T03:40:56;11.70;;;5.42;;
30677;SDS011;17437;47.188;8.896;2023-06-22T03:43:27;13.22;;;4.35;;
30677;SDS011;17437;47.188;8.896;2023-06-22T03:45:59;7.95;;;4.97;;
30677;SDS011;17437;47.188;8.896;2023-06-22T03:48:30;16.17;;;6.97;;
30677;SDS011;17437;47.188;8.896;2023-06-22T03:51:02;9.45;;;5.90;;
30677;SDS011;17437;47.188;8.896;2023-06-22T03:53:34;14.15;;;6.03;;
30677;SDS011;17437;47.188;8.896;2023-06-22T03:56:05;11.63;;;5.75;;
30677;SDS011;17437;47.188;8.896;2023-06-22T03:58:37;12.55;;;6.30;;
30677;SDS011;17437;47.188;8.896;2023-06-22T04:01:10;11.75;;;4.50;;
30677;SDS011;17437;47.188;8.896;2023-06-22T04:03:42;9.08;;;6.15;;
30677;SDS011;17437;47.188;8.896;2023-06-22T04:06:15;13.35;;;6.03;;
30677;SDS011;17437;47.188;8.896;2023-06-22T04:08:47;13.93;;;5.20;;
30677;SDS011;17437;47.188;8.896;2023-06-22T04:11:20;10.63;;;4.78;;
30677;SDS011;17437;47.188;8.896;2023-06-22T04:13:52;7.67;;;4.75;;
30677;SDS011;17437;47.188;8.896;2023-06-22T04:16:23;13.48;;;5.75;;
30677;SDS011;17437;47.188;8.896;2023-06-22T04:18:55;7.33;;;4.85;;
30677;SDS011;17437;47.188;8.896;2023-06-22T04:21:26;10.95;;;4.85;;
30677;SDS011;17437;47.188;8.896;2023-06-22T04:23:58;12.88;;;6.28;;
30677;SDS011;17437;47.188;8.896;2023-06-22T04:26:29;9.60;;;5.58;;
30677;SDS011;17437;47.188;8.896;2023-06-22T04:29:03;13.75;;;5.78;;
30677;SDS011;17437;47.188;8.896;2023-06-22T04:31:35;23.35;;;6.03;;
30677;SDS011;17437;47.188;8.896;2023-06-22T04:34:07;16.35;;;6.30;;
30677;SDS011;17437;47.188;8.896;2023-06-22T04:36:40;12.85;;;6.92;;
30677;SDS011;17437;47.188;8.896;2023-06-22T04:39:12;11.35;;;5.92;;
30677;SDS011;17437;47.188;8.896;2023-06-22T04:41:45;15.50;;;6.47;;
30677;SDS011;17437;47.188;8.896;2023-06-22T04:44:17;13.22;;;6.12;;
30677;SDS011;17437;47.188;8.896;2023-06-22T04:46:54;16.00;;;5.50;;
30677;SDS011;17437;47.188;8.896;2023-06-22T04:49:32;9.15;;;5.33;;
30677;SDS011;17437;47.188;8.896;2023-06-22T04:52:07;15.45;;;6.17;;
30677;SDS011;17437;47.188;8.896;2023-06-22T04:54:40;13.95;;;6.83;;
30677;SDS011;17437;47.188;8.896;2023-06-22T04:57:15;12.93;;;5.22;;
30677;SDS011;17437;47.188;8.896;2023-06-22T04:59:46;8.88;;;5.95;;
30677;SDS011;17437;47.188;8.896;2023-06-22T05:02:18;9.88;;;6.08;;
30677;SDS011;17437;47.188;8.896;2023-06-22T05:04:50;12.18;;;6.37;;
30677;SDS011;17437;47.188;8.896;2023-06-22T05:07:24;14.53;;;6.15;;
30677;SDS011;17437;47.188;8.896;2023-06-22T05:09:56;15.48;;;5.40;;
30677;SDS011;17437;47.188;8.896;2023-06-22T05:12:28;12.05;;;5.20;;
30677;SDS011;17437;47.188;8.896;2023-06-22T05:14:59;21.23;;;6.58;;
30677;SDS011;17437;47.188;8.896;2023-06-22T05:17:31;9.13;;;5.22;;
30677;SDS011;17437;47.188;8.896;2023-06-22T05:20:03;11.73;;;5.35;;
30677;SDS011;17437;47.188;8.896;2023-06-22T05:22:37;10.70;;;6.03;;
30677;SDS011;17437;47.188;8.896;2023-06-22T05:25:10;9.63;;;5.50;;
30677;SDS011;17437;47.188;8.896;2023-06-22T05:27:43;11.03;;;5.80;;
30677;SDS011;17437;47.188;8.896;2023-06-22T05:30:15;14.05;;;7.72;;
30677;SDS011;17437;47.188;8.896;2023-06-22T05:32:49;11.05;;;5.83;;
30677;SDS011;17437;47.188;8.896;2023-06-22T05:35:21;11.83;;;6.30;;
30677;SDS011;17437;47.188;8.896;2023-06-22T05:37:53;16.95;;;6.62;;
30677;SDS011;17437;47.188;8.896;2023-06-22T05:40:25;9.50;;;5.35;;
30677;SDS011;17437;47.188;8.896;2023-06-22T05:42:57;12.25;;;5.33;;
30677;SDS011;17437;47.188;8.896;2023-06-22T05:45:30;9.05;;;5.50;;
30677;SDS011;17437;47.188;8.896;2023-06-22T05:48:02;15.48;;;6.55;;
30677;SDS011;17437;47.188;8.896;2023-06-22T05:50:36;14.07;;;6.75;;
30677;SDS011;17437;47.188;8.896;2023-06-22T05:53:12;13.98;;;6.58;;
30677;SDS011;17437;47.188;8.896;2023-06-22T05:55:44;12.70;;;7.92;;
30677;SDS011;17437;47.188;8.896;2023-06-22T05:58:15;13.70;;;8.30;;
30677;SDS011;17437;47.188;8.896;2023-06-22T06:00:47;12.25;;;5.90;;
30677;SDS011;17437;47.188;8.896;2023-06-22T06:03:19;11.38;;;6.50;;
30677;SDS011;17437;47.188;8.896;2023-06-22T06:05:50;9.60;;;6.67;;
30677;SDS011;17437;47.188;8.896;2023-06-22T06:08:22;10.55;;;6.37;;
30677;SDS011;17437;47.188;8.896;2023-06-22T06:10:53;14.85;;;6.78;;
30677;SDS011;17437;47.188;8.896;2023-06-22T06:13:26;11.78;;;7.55;;
30677;SDS011;17437;47.188;8.896;2023-06-22T06:15:58;16.73;;;7.67;;
30677;SDS011;17437;47.188;8.896;2023-06-22T06:18:30;13.53;;;7.35;;
30677;SDS011;17437;47.188;8.896;2023-06-22T06:21:01;12.33;;;7.22;;
30677;SDS011;17437;47.188;8.896;2023-06-22T06:23:33;13.88;;;7.08;;
30677;SDS011;17437;47.188;8.896;2023-06-22T06:26:05;10.28;;;6.95;;
30677;SDS011;17437;47.188;8.896;2023-06-22T06:28:36;12.58;;;6.40;;
30677;SDS011;17437;47.188;8.896;2023-06-22T06:31:08;10.55;;;6.53;;
30677;SDS011;17437;47.188;8.896;2023-06-22T06:33:41;13.18;;;8.00;;
30677;SDS011;17437;47.188;8.896;2023-06-22T06:36:13;16.27;;;8.93;;
30677;SDS011;17437;47.188;8.896;2023-06-22T06:38:45;11.40;;;7.45;;
30677;SDS011;17437;47.188;8.896;2023-06-22T06:41:17;22.35;;;9.55;;
30677;SDS011;17437;47.188;8.896;2023-06-22T06:43:50;11.95;;;7.42;;
30677;SDS011;17437;47.188;8.896;2023-06-22T06:46:21;11.45;;;8.73;;
30677;SDS011;17437;47.188;8.896;2023-06-22T06:48:53;14.13;;;9.98;;
30677;SDS011;17437;47.188;8.896;2023-06-22T06:51:24;15.32;;;8.15;;
30677;SDS011;17437;47.188;8.896;2023-06-22T06:53:56;11.93;;;8.63;;
30677;SDS011;17437;47.188;8.896;2023-06-22T06:56:28;16.52;;;8.28;;
30677;SDS011;17437;47.188;8.896;2023-06-22T06:59:02;19.52;;;10.30;;
30677;SDS011;17437;47.188;8.896;2023-06-22T07:01:33;16.48;;;10.48;;
30677;SDS011;17437;47.188;8.896;2023-06-22T07:04:05;18.25;;;8.83;;
30677;SDS011;17437;47.188;8.896;2023-06-22T07:06:37;21.25;;;8.60;;
30677;SDS011;17437;47.188;8.896;2023-06-22T07:09:08;13.90;;;7.20;;
30677;SDS011;17437;47.188;8.896;2023-06-22T07:11:40;14.33;;;8.05;;
30677;SDS011;17437;47.188;8.896;2023-06-22T07:14:11;13.55;;;7.92;;
30677;SDS011;17437;47.188;8.896;2023-06-22T07:16:43;16.42;;;9.30;;
30677;SDS011;17437;47.188;8.896;2023-06-22T07:19:15;19.23;;;9.83;;
30677;SDS011;17437;47.188;8.896;2023-06-22T07:21:48;8.50;;;6.45;;
30677;SDS011;17437;47.188;8.896;2023-06-22T07:24:19;14.55;;;7.85;;
30677;SDS011;17437;47.188;8.896;2023-06-22T07:26:56;11.57;;;7.80;;
30677;SDS011;17437;47.188;8.896;2023-06-22T07:29:28;12.80;;;7.20;;
30677;SDS011;17437;47.188;8.896;2023-06-22T07:32:01;10.53;;;8.08;;
30677;SDS011;17437;47.188;8.896;2023-06-22T07:34:34;11.97;;;8.05;;
30677;SDS011;17437;47.188;8.896;2023-06-22T07:37:06;16.20;;;10.80;;
30677;SDS011;17437;47.188;8.896;2023-06-22T07:39:38;16.27;;;11.57;;
30677;SDS011;17437;47.188;8.896;2023-06-22T07:42:13;14.68;;;8.90;;
30677;SDS011;17437;47.188;8.896;2023-06-22T07:44:47;16.50;;;9.90;;
30677;SDS011;17437;47.188;8.896;2023-06-22T07:47:20;16.48;;;10.20;;
30677;SDS011;17437;47.188;8.896;2023-06-22T07:49:54;15.20;;;8.70;;
30677;SDS011;17437;47.188;8.896;2023-06-22T07:52:27;18.00;;;10.20;;
30677;SDS011;17437;47.188;8.896;2023-06-22T07:54:59;12.75;;;10.20;;
30677;SDS011;17437;47.188;8.896;2023-06-22T07:57:31;18.42;;;9.73;;
30677;SDS011;17437;47.188;8.896;2023-06-22T08:00:04;17.55;;;10.40;;
30677;SDS011;17437;47.188;8.896;2023-06-22T08:02:40;14.60;;;9.48;;
30677;SDS011;17437;47.188;8.896;2023-06-22T08:05:13;22.82;;;9.25;;
30677;SDS011;17437;47.188;8.896;2023-06-22T08:07:48;16.02;;;9.83;;
30677;SDS011;17437;47.188;8.896;2023-06-22T08:10:19;22.30;;;10.93;;
30677;SDS011;17437;47.188;8.896;2023-06-22T08:12:51;17.30;;;10.82;;
30677;SDS011;17437;47.188;8.896;2023-06-22T08:15:22;22.45;;;10.95;;
30677;SDS011;17437;47.188;8.896;2023-06-22T08:17:58;17.57;;;10.95;;
30677;SDS011;17437;47.188;8.896;2023-06-22T08:20:30;17.05;;;10.90;;
30677;SDS011;17437;47.188;8.896;2023-06-22T08:23:02;19.82;;;11.53;;
30677;SDS011;17437;47.188;8.896;2023-06-22T08:25:35;19.95;;;10.18;;
30677;SDS011;17437;47.188;8.896;2023-06-22T08:28:06;21.25;;;11.35;;
30677;SDS011;17437;47.188;8.896;2023-06-22T08:30:38;20.30;;;10.60;;
30677;SDS011;17437;47.188;8.896;2023-06-22T08:33:10;14.90;;;9.05;;
30677;SDS011;17437;47.188;8.896;2023-06-22T08:35:44;14.70;;;8.23;;
30677;SDS011;17437;47.188;8.896;2023-06-22T08:38:16;17.57;;;10.15;;
30677;SDS011;17437;47.188;8.896;2023-06-22T08:40:47;13.13;;;9.90;;
30677;SDS011;17437;47.188;8.896;2023-06-22T08:43:19;19.05;;;12.28;;
30677;SDS011;17437;47.188;8.896;2023-06-22T08:45:51;17.60;;;9.40;;
30677;SDS011;17437;47.188;8.896;2023-06-22T08:48:22;13.85;;;9.33;;
30677;SDS011;17437;47.188;8.896;2023-06-22T08:50:54;25.05;;;10.05;;
30677;SDS011;17437;47.188;8.896;2023-06-22T08:53:25;18.12;;;11.48;;
30677;SDS011;17437;47.188;8.896;2023-06-22T08:55:57;18.45;;;10.32;;
30677;SDS011;17437;47.188;8.896;2023-06-22T08:58:29;17.48;;;9.83;;
30677;SDS011;17437;47.188;8.896;2023-06-22T09:01:00;13.68;;;9.93;;
30677;SDS011;17437;47.188;8.896;2023-06-22T09:03:34;18.10;;;10.65;;
30677;SDS011;17437;47.188;8.896;2023-06-22T09:06:07;17.60;;;9.80;;
30677;SDS011;17437;47.188;8.896;2023-06-22T09:08:38;17.25;;;10.55;;
30677;SDS011;17437;47.188;8.896;2023-06-22T09:11:10;15.90;;;9.98;;
30677;SDS011;17437;47.188;8.896;2023-06-22T09:13:42;17.82;;;9.78;;
30677;SDS011;17437;47.188;8.896;2023-06-22T09:16:13;15.50;;;9.88;;
30677;SDS011;17437;47.188;8.896;2023-06-22T09:18:47;23.20;;;11.28;;
30677;SDS011;17437;47.188;8.896;2023-06-22T09:21:19;14.38;;;9.95;;
30677;SDS011;17437;47.188;8.896;2023-06-22T09:23:50;16.42;;;10.93;;
30677;SDS011;17437;47.188;8.896;2023-06-22T09:26:22;20.55;;;12.05;;
30677;SDS011;17437;47.188;8.896;2023-06-22T09:28:53;24.37;;;12.55;;
30677;SDS011;17437;47.188;8.896;2023-06-22T09:31:25;16.80;;;11.57;;
30677;SDS011;17437;47.188;8.896;2023-06-22T09:33:57;17.07;;;9.95;;
30677;SDS011;17437;47.188;8.896;2023-06-22T09:36:29;16.87;;;11.18;;
30677;SDS011;17437;47.188;8.896;2023-06-22T09:39:00;15.88;;;9.90;;
30677;SDS011;17437;47.188;8.896;2023-06-22T09:41:34;39.10;;;27.90;;
30677;SDS011;17437;47.188;8.896;2023-06-22T09:44:05;24.45;;;10.38;;
30677;SDS011;17437;47.188;8.896;2023-06-22T09:46:37;15.40;;;9.43;;
30677;SDS011;17437;47.188;8.896;2023-06-22T09:49:09;15.88;;;10.15;;
30677;SDS011;17437;47.188;8.896;2023-06-22T09:51:40;14.30;;;9.45;;
30677;SDS011;17437;47.188;8.896;2023-06-22T09:54:12;14.13;;;8.75;;
30677;SDS011;17437;47.188;8.896;2023-06-22T09:56:43;14.28;;;8.70;;
30677;SDS011;17437;47.188;8.896;2023-06-22T09:59:15;18.90;;;9.88;;
30677;SDS011;17437;47.188;8.896;2023-06-22T10:01:47;13.35;;;8.30;;
30677;SDS011;17437;47.188;8.896;2023-06-22T10:04:18;24.20;;;9.40;;
30677;SDS011;17437;47.188;8.896;2023-06-22T10:06:50;13.32;;;8.10;;
30677;SDS011;17437;47.188;8.896;2023-06-22T10:09:22;18.48;;;9.38;;
30677;SDS011;17437;47.188;8.896;2023-06-22T10:11:54;26.30;;;11.15;;
30677;SDS011;17437;47.188;8.896;2023-06-22T10:14:25;12.30;;;7.85;;
30677;SDS011;17437;47.188;8.896;2023-06-22T10:16:58;10.38;;;6.55;;
30677;SDS011;17437;47.188;8.896;2023-06-22T10:19:30;14.70;;;8.15;;
30677;SDS011;17437;47.188;8.896;2023-06-22T10:22:01;13.80;;;8.25;;
30677;SDS011;17437;47.188;8.896;2023-06-22T10:24:33;12.47;;;7.12;;
30677;SDS011;17437;47.188;8.896;2023-06-22T10:27:06;10.13;;;6.60;;
30677;SDS011;17437;47.188;8.896;2023-06-22T10:29:37;16.32;;;7.08;;
30677;SDS011;17437;47.188;8.896;2023-06-22T10:32:09;12.70;;;6.67;;
30677;SDS011;17437;47.188;8.896;2023-06-22T10:34:41;13.72;;;6.33;;
30677;SDS011;17437;47.188;8.896;2023-06-22T10:37:12;9.90;;;6.42;;
30677;SDS011;17437;47.188;8.896;2023-06-22T10:39:45;14.43;;;6.45;;
30677;SDS011;17437;47.188;8.896;2023-06-22T10:42:17;12.25;;;7.10;;
30677;SDS011;17437;47.188;8.896;2023-06-22T10:44:48;12.88;;;5.80;;
30677;SDS011;17437;47.188;8.896;2023-06-22T10:47:20;14.10;;;6.10;;
30677;SDS011;17437;47.188;8.896;2023-06-22T10:49:52;15.03;;;5.67;;
30677;SDS011;17437;47.188;8.896;2023-06-22T10:52:24;13.65;;;5.92;;
30677;SDS011;17437;47.188;8.896;2023-06-22T10:54:55;11.43;;;6.95;;
30677;SDS011;17437;47.188;8.896;2023-06-22T10:57:27;16.42;;;8.63;;
30677;SDS011;17437;47.188;8.896;2023-06-22T10:59:59;15.08;;;7.17;;
30677;SDS011;17437;47.188;8.896;2023-06-22T11:02:30;13.10;;;8.15;;
30677;SDS011;17437;47.188;8.896;2023-06-22T11:05:03;15.05;;;6.78;;
30677;SDS011;17437;47.188;8.896;2023-06-22T11:07:35;25.02;;;8.30;;
30677;SDS011;17437;47.188;8.896;2023-06-22T11:10:08;11.93;;;6.97;;
30677;SDS011;17437;47.188;8.896;2023-06-22T11:12:40;19.10;;;6.03;;
30677;SDS011;17437;47.188;8.896;2023-06-22T11:15:12;14.50;;;7.08;;
30677;SDS011;17437;47.188;8.896;2023-06-22T11:17:43;14.35;;;6.85;;
30677;SDS011;17437;47.188;8.896;2023-06-22T11:20:15;11.80;;;6.08;;
30677;SDS011;17437;47.188;8.896;2023-06-22T11:22:47;17.73;;;8.03;;
30677;SDS011;17437;47.188;8.896;2023-06-22T11:25:19;19.45;;;6.72;;
30677;SDS011;17437;47.188;8.896;2023-06-22T11:27:50;18.30;;;8.13;;
30677;SDS011;17437;47.188;8.896;2023-06-22T11:30:23;15.00;;;7.97;;
30677;SDS011;17437;47.188;8.896;2023-06-22T11:32:55;15.53;;;5.95;;
30677;SDS011;17437;47.188;8.896;2023-06-22T11:35:29;15.32;;;7.10;;
30677;SDS011;17437;47.188;8.896;2023-06-22T11:38:02;15.85;;;7.25;;
30677;SDS011;17437;47.188;8.896;2023-06-22T11:40:34;14.15;;;6.45;;
30677;SDS011;17437;47.188;8.896;2023-06-22T11:43:05;18.07;;;7.22;;
30677;SDS011;17437;47.188;8.896;2023-06-22T11:45:37;13.38;;;6.08;;
30677;SDS011;17437;47.188;8.896;2023-06-22T11:48:09;15.72;;;6.75;;
30677;SDS011;17437;47.188;8.896;2023-06-22T11:50:40;14.00;;;6.97;;
30677;SDS011;17437;47.188;8.896;2023-06-22T11:53:13;17.32;;;9.15;;
30677;SDS011;17437;47.188;8.896;2023-06-22T11:55:46;19.95;;;7.78;;
30677;SDS011;17437;47.188;8.896;2023-06-22T11:58:18;15.23;;;8.68;;
30677;SDS011;17437;47.188;8.896;2023-06-22T12:00:49;10.23;;;5.67;;
30677;SDS011;17437;47.188;8.896;2023-06-22T12:03:21;13.68;;;6.45;;
30677;SDS011;17437;47.188;8.896;2023-06-22T12:05:53;15.68;;;5.87;;
30677;SDS011;17437;47.188;8.896;2023-06-22T12:08:26;11.33;;;5.55;;
30677;SDS011;17437;47.188;8.896;2023-06-22T12:10:58;12.58;;;7.37;;
30677;SDS011;17437;47.188;8.896;2023-06-22T12:13:29;8.30;;;5.78;;
30677;SDS011;17437;47.188;8.896;2023-06-22T12:16:01;11.93;;;6.87;;
30677;SDS011;17437;47.188;8.896;2023-06-22T12:18:33;15.38;;;6.95;;
30677;SDS011;17437;47.188;8.896;2023-06-22T12:21:04;21.37;;;9.93;;
30677;SDS011;17437;47.188;8.896;2023-06-22T12:23:36;13.62;;;6.87;;
30677;SDS011;17437;47.188;8.896;2023-06-22T12:26:07;19.75;;;7.83;;
30677;SDS011;17437;47.188;8.896;2023-06-22T12:28:39;13.22;;;6.60;;
30677;SDS011;17437;47.188;8.896;2023-06-22T12:31:10;18.73;;;6.10;;
30677;SDS011;17437;47.188;8.896;2023-06-22T12:33:42;11.00;;;6.33;;
30677;SDS011;17437;47.188;8.896;2023-06-22T12:36:14;13.70;;;5.80;;
30677;SDS011;17437;47.188;8.896;2023-06-22T12:38:46;13.35;;;6.15;;
30677;SDS011;17437;47.188;8.896;2023-06-22T12:41:17;17.55;;;12.33;;
30677;SDS011;17437;47.188;8.896;2023-06-22T12:43:49;24.30;;;9.33;;
30677;SDS011;17437;47.188;8.896;2023-06-22T12:46:21;14.78;;;5.58;;
30677;SDS011;17437;47.188;8.896;2023-06-22T12:48:52;10.60;;;6.33;;
30677;SDS011;17437;47.188;8.896;2023-06-22T12:51:24;16.80;;;7.12;;
30677;SDS011;17437;47.188;8.896;2023-06-22T12:53:56;9.93;;;5.17;;
30677;SDS011;17437;47.188;8.896;2023-06-22T12:56:27;17.65;;;6.42;;
30677;SDS011;17437;47.188;8.896;2023-06-22T12:58:59;10.53;;;5.30;;
30677;SDS011;17437;47.188;8.896;2023-06-22T13:01:31;16.23;;;5.50;;
30677;SDS011;17437;47.188;8.896;2023-06-22T13:04:03;9.38;;;5.33;;
30677;SDS011;17437;47.188;8.896;2023-06-22T13:06:34;14.35;;;5.85;;
30677;SDS011;17437;47.188;8.896;2023-06-22T13:09:06;12.75;;;5.33;;
30677;SDS011;17437;47.188;8.896;2023-06-22T13:11:39;9.35;;;4.62;;
30677;SDS011;17437;47.188;8.896;2023-06-22T13:14:12;16.77;;;6.45;;
30677;SDS011;17437;47.188;8.896;2023-06-22T13:16:45;17.15;;;4.40;;
30677;SDS011;17437;47.188;8.896;2023-06-22T13:19:16;11.33;;;5.55;;
30677;SDS011;17437;47.188;8.896;2023-06-22T13:21:48;13.58;;;5.08;;
30677;SDS011;17437;47.188;8.896;2023-06-22T13:24:20;13.00;;;6.33;;
30677;SDS011;17437;47.188;8.896;2023-06-22T13:26:51;15.35;;;4.10;;
30677;SDS011;17437;47.188;8.896;2023-06-22T13:29:23;10.45;;;3.87;;
30677;SDS011;17437;47.188;8.896;2023-06-22T13:31:55;11.30;;;5.17;;
30677;SDS011;17437;47.188;8.896;2023-06-22T13:34:27;11.45;;;5.22;;
30677;SDS011;17437;47.188;8.896;2023-06-22T13:36:58;12.15;;;4.03;;
30677;SDS011;17437;47.188;8.896;2023-06-22T13:39:30;15.95;;;5.87;;
30677;SDS011;17437;47.188;8.896;2023-06-22T13:42:01;11.40;;;4.62;;
30677;SDS011;17437;47.188;8.896;2023-06-22T13:44:33;12.90;;;4.90;;
30677;SDS011;17437;47.188;8.896;2023-06-22T13:47:05;15.15;;;6.45;;
30677;SDS011;17437;47.188;8.896;2023-06-22T13:49:37;9.70;;;5.25;;
30677;SDS011;17437;47.188;8.896;2023-06-22T13:52:09;17.17;;;6.28;;
30677;SDS011;17437;47.188;8.896;2023-06-22T13:54:41;13.93;;;6.55;;
30677;SDS011;17437;47.188;8.896;2023-06-22T13:57:13;10.45;;;5.28;;
30677;SDS011;17437;47.188;8.896;2023-06-22T13:59:45;12.43;;;5.95;;
30677;SDS011;17437;47.188;8.896;2023-06-22T14:02:17;15.90;;;5.65;;
30677;SDS011;17437;47.188;8.896;2023-06-22T14:04:48;12.58;;;4.62;;
30677;SDS011;17437;47.188;8.896;2023-06-22T14:07:20;8.88;;;4.75;;
30677;SDS011;17437;47.188;8.896;2023-06-22T14:09:53;17.65;;;4.45;;
30677;SDS011;17437;47.188;8.896;2023-06-22T14:12:25;12.73;;;3.70;;
30677;SDS011;17437;47.188;8.896;2023-06-22T14:14:56;9.68;;;4.08;;
30677;SDS011;17437;47.188;8.896;2023-06-22T14:17:28;9.75;;;3.80;;
30677;SDS011;17437;47.188;8.896;2023-06-22T14:19:59;41.35;;;6.97;;
30677;SDS011;17437;47.188;8.896;2023-06-22T14:22:31;16.05;;;3.90;;
30677;SDS011;17437;47.188;8.896;2023-06-22T14:25:05;20.70;;;4.80;;
30677;SDS011;17437;47.188;8.896;2023-06-22T14:27:38;15.38;;;5.47;;
30677;SDS011;17437;47.188;8.896;2023-06-22T14:30:10;10.78;;;2.92;;
30677;SDS011;17437;47.188;8.896;2023-06-22T14:32:43;17.17;;;4.90;;
30677;SDS011;17437;47.188;8.896;2023-06-22T14:35:15;11.68;;;3.33;;
30677;SDS011;17437;47.188;8.896;2023-06-22T14:37:46;12.10;;;3.42;;
30677;SDS011;17437;47.188;8.896;2023-06-22T14:40:18;9.40;;;4.53;;
30677;SDS011;17437;47.188;8.896;2023-06-22T14:42:51;12.68;;;4.47;;
30677;SDS011;17437;47.188;8.896;2023-06-22T14:45:25;13.65;;;4.15;;
30677;SDS011;17437;47.188;8.896;2023-06-22T14:47:56;11.55;;;4.28;;
30677;SDS011;17437;47.188;8.896;2023-06-22T14:50:28;8.98;;;3.37;;
30677;SDS011;17437;47.188;8.896;2023-06-22T14:53:00;6.08;;;2.95;;
30677;SDS011;17437;47.188;8.896;2023-06-22T14:55:32;11.65;;;4.25;;
30677;SDS011;17437;47.188;8.896;2023-06-22T14:58:03;10.08;;;3.77;;
30677;SDS011;17437;47.188;8.896;2023-06-22T15:00:35;12.30;;;3.55;;
30677;SDS011;17437;47.188;8.896;2023-06-22T15:03:06;8.45;;;3.58;;
30677;SDS011;17437;47.188;8.896;2023-06-22T15:05:43;9.75;;;4.67;;
30677;SDS011;17437;47.188;8.896;2023-06-22T15:08:15;9.03;;;3.40;;